sensor_id;sensor_type;location;lat;lon;timestamp;temperature;humidity
19805;DHT22;10062;51.052;13.756;2023-02-26T00:00:34;0.00;99.90
19805;DHT22;10062;51.052;13.756;2023-02-26T00:03:06;0.00;99.90
19805;DHT22;10062;51.052;13.756;2023-02-26T00:05:37;0.00;99.90
19805;DHT22;10062;51.052;13.756;2023-02-26T00:08:09;0.00;99.90
19805;DHT22;10062;51.052;13.756;2023-02-26T00:10:41;0.10;99.90
19805;DHT22;10062;51.052;13.756;2023-02-26T00:13:13;0.00;99.90
19805;DHT22;10062;51.052;13.756;2023-02-26T00:15:46;0.00;99.90
19805;DHT22;10062;51.052;13.756;2023-02-26T00:18:19;0.00;99.90
19805;DHT22;10062;51.052;13.756;2023-02-26T00:20:51;0.10;99.90
19805;DHT22;10062;51.052;13.756;2023-02-26T00:23:23;0.00;99.90
19805;DHT22;10062;51.052;13.756;2023-02-26T00:25:56;0.00;99.90
19805;DHT22;10062;51.052;13.756;2023-02-26T00:28:28;-0.10;99.90
19805;DHT22;10062;51.052;13.756;2023-02-26T00:31:02;-0.10;99.90
19805;DHT22;10062;51.052;13.756;2023-02-26T00:33:34;-0.20;99.90
19805;DHT22;10062;51.052;13.756;2023-02-26T00:36:16;0.00;99.90
19805;DHT22;10062;51.052;13.756;2023-02-26T00:39:06;-0.10;99.90
19805;DHT22;10062;51.052;13.756;2023-02-26T00:41:40;-0.10;99.90
19805;DHT22;10062;51.052;13.756;2023-02-26T00:44:13;-0.10;99.90
19805;DHT22;10062;51.052;13.756;2023-02-26T00:46:49;-0.10;99.90
19805;DHT22;10062;51.052;13.756;2023-02-26T00:49:26;-0.10;99.90
19805;DHT22;10062;51.052;13.756;2023-02-26T00:52:03;-0.10;99.90
19805;DHT22;10062;51.052;13.756;2023-02-26T00:54:35;-0.10;99.90
19805;DHT22;10062;51.052;13.756;2023-02-26T00:57:07;-0.10;99.90
19805;DHT22;10062;51.052;13.756;2023-02-26T00:59:39;-0.10;99.90
19805;DHT22;10062;51.052;13.756;2023-02-26T01:02:12;-0.10;99.90
19805;DHT22;10062;51.052;13.756;2023-02-26T01:04:44;-0.10;99.90
19805;DHT22;10062;51.052;13.756;2023-02-26T01:07:20;-0.10;99.90
19805;DHT22;10062;51.052;13.756;2023-02-26T01:09:53;-0.20;99.90
19805;DHT22;10062;51.052;13.756;2023-02-26T01:12:25;-0.10;99.90
19805;DHT22;10062;51.052;13.756;2023-02-26T01:14:58;-0.10;99.90
19805;DHT22;10062;51.052;13.756;2023-02-26T01:17:34;-0.10;99.90
19805;DHT22;10062;51.052;13.756;2023-02-26T01:20:12;-0.10;99.90
19805;DHT22;10062;51.052;13.756;2023-02-26T01:22:49;-0.10;99.90
19805;DHT22;10062;51.052;13.756;2023-02-26T01:25:25;-0.20;99.90
19805;DHT22;10062;51.052;13.756;2023-02-26T01:27:57;-0.20;99.90
19805;DHT22;10062;51.052;13.756;2023-02-26T01:30:30;-0.20;99.90
19805;DHT22;10062;51.052;13.756;2023-02-26T01:33:09;-0.20;99.90
19805;DHT22;10062;51.052;13.756;2023-02-26T01:35:46;-0.20;99.90
19805;DHT22;10062;51.052;13.756;2023-02-26T01:38:23;-0.20;99.90
19805;DHT22;10062;51.052;13.756;2023-02-26T01:41:16;-0.20;99.90
19805;DHT22;10062;51.052;13.756;2023-02-26T01:43:59;-0.30;99.90
19805;DHT22;10062;51.052;13.756;2023-02-26T01:46:38;-0.20;99.90
19805;DHT22;10062;51.052;13.756;2023-02-26T01:49:15;-0.30;99.90
19805;DHT22;10062;51.052;13.756;2023-02-26T01:51:50;-0.30;99.90
19805;DHT22;10062;51.052;13.756;2023-02-26T01:54:23;-0.30;99.90
19805;DHT22;10062;51.052;13.756;2023-02-26T01:56:58;-0.30;99.90
19805;DHT22;10062;51.052;13.756;2023-02-26T01:59:31;-0.30;99.90
19805;DHT22;10062;51.052;13.756;2023-02-26T02:02:06;-0.30;99.90
19805;DHT22;10062;51.052;13.756;2023-02-26T02:04:40;-0.30;99.90
19805;DHT22;10062;51.052;13.756;2023-02-26T02:07:13;-0.30;99.90
19805;DHT22;10062;51.052;13.756;2023-02-26T02:09:45;-0.30;99.90
19805;DHT22;10062;51.052;13.756;2023-02-26T02:12:25;-0.30;99.90
19805;DHT22;10062;51.052;13.756;2023-02-26T02:15:07;-0.30;99.90
19805;DHT22;10062;51.052;13.756;2023-02-26T02:17:47;-0.30;99.90
19805;DHT22;10062;51.052;13.756;2023-02-26T02:20:38;-0.30;99.90
19805;DHT22;10062;51.052;13.756;2023-02-26T02:23:16;-0.30;99.90
19805;DHT22;10062;51.052;13.756;2023-02-26T02:29:34;-0.20;99.90
19805;DHT22;10062;51.052;13.756;2023-02-26T02:32:09;-0.20;99.90
19805;DHT22;10062;51.052;13.756;2023-02-26T02:34:46;-0.20;99.90
19805;DHT22;10062;51.052;13.756;2023-02-26T02:37:22;-0.20;99.90
19805;DHT22;10062;51.052;13.756;2023-02-26T02:40:00;-0.20;99.90
19805;DHT22;10062;51.052;13.756;2023-02-26T02:42:34;-0.20;99.90
19805;DHT22;10062;51.052;13.756;2023-02-26T02:45:13;-0.20;99.90
19805;DHT22;10062;51.052;13.756;2023-02-26T02:47:52;-0.20;99.90
19805;DHT22;10062;51.052;13.756;2023-02-26T02:50:30;-0.20;99.90
19805;DHT22;10062;51.052;13.756;2023-02-26T02:53:08;-0.20;99.90
19805;DHT22;10062;51.052;13.756;2023-02-26T02:55:47;-0.20;99.90
19805;DHT22;10062;51.052;13.756;2023-02-26T02:58:23;-0.20;99.90
19805;DHT22;10062;51.052;13.756;2023-02-26T03:01:01;-0.20;99.90
19805;DHT22;10062;51.052;13.756;2023-02-26T03:03:40;-0.20;99.90
19805;DHT22;10062;51.052;13.756;2023-02-26T03:06:13;-0.20;99.90
19805;DHT22;10062;51.052;13.756;2023-02-26T03:08:45;-0.20;99.90
19805;DHT22;10062;51.052;13.756;2023-02-26T03:11:20;-0.20;99.90
19805;DHT22;10062;51.052;13.756;2023-02-26T03:13:52;-0.20;99.90
19805;DHT22;10062;51.052;13.756;2023-02-26T03:16:47;-0.20;99.90
19805;DHT22;10062;51.052;13.756;2023-02-26T03:19:27;-0.20;99.90
19805;DHT22;10062;51.052;13.756;2023-02-26T03:22:08;-0.20;99.90
19805;DHT22;10062;51.052;13.756;2023-02-26T03:25:03;-0.20;99.90
19805;DHT22;10062;51.052;13.756;2023-02-26T03:27:42;-0.20;99.90
19805;DHT22;10062;51.052;13.756;2023-02-26T03:30:19;-0.20;99.90
19805;DHT22;10062;51.052;13.756;2023-02-26T03:32:57;-0.20;99.90
19805;DHT22;10062;51.052;13.756;2023-02-26T03:35:37;-0.10;99.90
19805;DHT22;10062;51.052;13.756;2023-02-26T03:38:19;-0.10;99.90
19805;DHT22;10062;51.052;13.756;2023-02-26T03:40:56;-0.10;99.90
19805;DHT22;10062;51.052;13.756;2023-02-26T03:43:34;-0.10;99.90
19805;DHT22;10062;51.052;13.756;2023-02-26T03:46:13;-0.10;99.90
19805;DHT22;10062;51.052;13.756;2023-02-26T03:48:47;-0.10;99.90
19805;DHT22;10062;51.052;13.756;2023-02-26T03:51:23;-0.10;99.90
19805;DHT22;10062;51.052;13.756;2023-02-26T03:54:06;-0.10;99.90
19805;DHT22;10062;51.052;13.756;2023-02-26T03:56:44;-0.10;99.90
19805;DHT22;10062;51.052;13.756;2023-02-26T03:59:43;-0.10;99.90
19805;DHT22;10062;51.052;13.756;2023-02-26T04:02:37;-0.10;99.90
19805;DHT22;10062;51.052;13.756;2023-02-26T04:05:21;-0.10;99.90
19805;DHT22;10062;51.052;13.756;2023-02-26T04:07:56;-0.10;99.90
19805;DHT22;10062;51.052;13.756;2023-02-26T04:10:33;-0.10;99.90
19805;DHT22;10062;51.052;13.756;2023-02-26T04:13:06;-0.10;99.90
19805;DHT22;10062;51.052;13.756;2023-02-26T04:15:38;-0.10;99.90
19805;DHT22;10062;51.052;13.756;2023-02-26T04:18:10;-0.10;99.90
19805;DHT22;10062;51.052;13.756;2023-02-26T04:20:41;-0.10;99.90
19805;DHT22;10062;51.052;13.756;2023-02-26T04:23:15;-0.10;99.90
19805;DHT22;10062;51.052;13.756;2023-02-26T04:25:48;-0.10;99.90
19805;DHT22;10062;51.052;13.756;2023-02-26T04:28:20;-0.10;99.90
19805;DHT22;10062;51.052;13.756;2023-02-26T04:30:53;-0.10;99.90
19805;DHT22;10062;51.052;13.756;2023-02-26T04:33:25;-0.10;99.90
19805;DHT22;10062;51.052;13.756;2023-02-26T04:35:57;-0.10;99.90
19805;DHT22;10062;51.052;13.756;2023-02-26T04:38:30;-0.10;99.90
19805;DHT22;10062;51.052;13.756;2023-02-26T04:41:02;-0.10;99.90
19805;DHT22;10062;51.052;13.756;2023-02-26T04:43:34;-0.10;99.90
19805;DHT22;10062;51.052;13.756;2023-02-26T04:46:27;-0.10;99.90
19805;DHT22;10062;51.052;13.756;2023-02-26T04:48:59;0.00;99.90
19805;DHT22;10062;51.052;13.756;2023-02-26T04:51:30;-0.10;99.90
19805;DHT22;10062;51.052;13.756;2023-02-26T04:54:04;0.00;99.90
19805;DHT22;10062;51.052;13.756;2023-02-26T04:56:36;0.00;99.90
19805;DHT22;10062;51.052;13.756;2023-02-26T04:59:08;0.00;99.90
19805;DHT22;10062;51.052;13.756;2023-02-26T05:01:40;0.00;99.90
19805;DHT22;10062;51.052;13.756;2023-02-26T05:04:12;0.00;99.90
19805;DHT22;10062;51.052;13.756;2023-02-26T05:06:47;0.00;99.90
19805;DHT22;10062;51.052;13.756;2023-02-26T05:09:20;0.00;99.90
19805;DHT22;10062;51.052;13.756;2023-02-26T05:11:52;0.00;99.90
19805;DHT22;10062;51.052;13.756;2023-02-26T05:14:23;0.00;99.90
19805;DHT22;10062;51.052;13.756;2023-02-26T05:16:55;0.00;99.90
19805;DHT22;10062;51.052;13.756;2023-02-26T05:19:27;0.00;99.90
19805;DHT22;10062;51.052;13.756;2023-02-26T05:21:59;0.00;99.90
19805;DHT22;10062;51.052;13.756;2023-02-26T05:24:32;0.00;99.90
19805;DHT22;10062;51.052;13.756;2023-02-26T05:27:04;0.00;99.90
19805;DHT22;10062;51.052;13.756;2023-02-26T05:29:38;0.00;99.90
19805;DHT22;10062;51.052;13.756;2023-02-26T05:32:12;0.00;99.90
19805;DHT22;10062;51.052;13.756;2023-02-26T05:34:44;0.00;97.00
19805;DHT22;10062;51.052;13.756;2023-02-26T05:37:15;0.00;99.20
19805;DHT22;10062;51.052;13.756;2023-02-26T05:39:48;0.00;98.10
19805;DHT22;10062;51.052;13.756;2023-02-26T05:42:20;0.00;96.90
19805;DHT22;10062;51.052;13.756;2023-02-26T05:44:52;0.00;98.70
19805;DHT22;10062;51.052;13.756;2023-02-26T05:47:24;0.00;98.80
19805;DHT22;10062;51.052;13.756;2023-02-26T05:49:55;0.00;98.00
19805;DHT22;10062;51.052;13.756;2023-02-26T05:52:27;-0.10;95.20
19805;DHT22;10062;51.052;13.756;2023-02-26T05:55:00;-0.10;98.30
19805;DHT22;10062;51.052;13.756;2023-02-26T05:57:32;0.00;97.80
19805;DHT22;10062;51.052;13.756;2023-02-26T06:00:05;0.00;96.20
19805;DHT22;10062;51.052;13.756;2023-02-26T06:02:43;0.00;96.40
19805;DHT22;10062;51.052;13.756;2023-02-26T06:05:14;0.00;95.60
19805;DHT22;10062;51.052;13.756;2023-02-26T06:07:46;0.10;94.40
19805;DHT22;10062;51.052;13.756;2023-02-26T06:10:19;0.00;93.90
19805;DHT22;10062;51.052;13.756;2023-02-26T06:12:51;0.00;95.70
19805;DHT22;10062;51.052;13.756;2023-02-26T06:15:23;0.00;98.00
19805;DHT22;10062;51.052;13.756;2023-02-26T06:17:55;0.00;99.90
19805;DHT22;10062;51.052;13.756;2023-02-26T06:20:26;0.00;99.10
19805;DHT22;10062;51.052;13.756;2023-02-26T06:22:58;0.00;97.30
19805;DHT22;10062;51.052;13.756;2023-02-26T06:25:31;0.00;99.90
19805;DHT22;10062;51.052;13.756;2023-02-26T06:28:03;0.00;99.90
19805;DHT22;10062;51.052;13.756;2023-02-26T06:30:35;0.00;98.40
19805;DHT22;10062;51.052;13.756;2023-02-26T06:33:06;0.00;98.70
19805;DHT22;10062;51.052;13.756;2023-02-26T06:35:38;0.00;95.90
19805;DHT22;10062;51.052;13.756;2023-02-26T06:38:12;0.00;96.30
19805;DHT22;10062;51.052;13.756;2023-02-26T06:40:46;0.00;91.40
19805;DHT22;10062;51.052;13.756;2023-02-26T06:43:18;0.00;91.80
19805;DHT22;10062;51.052;13.756;2023-02-26T06:45:49;0.00;90.90
19805;DHT22;10062;51.052;13.756;2023-02-26T06:48:21;0.00;85.10
19805;DHT22;10062;51.052;13.756;2023-02-26T06:50:53;0.00;87.40
19805;DHT22;10062;51.052;13.756;2023-02-26T06:53:24;0.10;87.50
19805;DHT22;10062;51.052;13.756;2023-02-26T06:55:57;0.10;88.00
19805;DHT22;10062;51.052;13.756;2023-02-26T06:58:29;0.10;87.30
19805;DHT22;10062;51.052;13.756;2023-02-26T07:01:02;0.10;78.70
19805;DHT22;10062;51.052;13.756;2023-02-26T07:03:34;0.10;61.20
19805;DHT22;10062;51.052;13.756;2023-02-26T07:06:06;0.10;59.70
19805;DHT22;10062;51.052;13.756;2023-02-26T07:08:39;0.20;59.20
19805;DHT22;10062;51.052;13.756;2023-02-26T07:11:11;0.20;53.40
19805;DHT22;10062;51.052;13.756;2023-02-26T07:13:44;0.20;50.20
19805;DHT22;10062;51.052;13.756;2023-02-26T07:16:15;0.20;50.20
19805;DHT22;10062;51.052;13.756;2023-02-26T07:18:47;0.20;30.00
19805;DHT22;10062;51.052;13.756;2023-02-26T07:21:19;0.20;20.80
19805;DHT22;10062;51.052;13.756;2023-02-26T07:23:51;0.20;25.30
19805;DHT22;10062;51.052;13.756;2023-02-26T07:26:24;0.30;36.70
19805;DHT22;10062;51.052;13.756;2023-02-26T07:28:55;0.30;35.10
19805;DHT22;10062;51.052;13.756;2023-02-26T07:31:27;0.30;29.40
19805;DHT22;10062;51.052;13.756;2023-02-26T07:33:59;0.30;26.20
19805;DHT22;10062;51.052;13.756;2023-02-26T07:36:31;0.30;25.90
19805;DHT22;10062;51.052;13.756;2023-02-26T07:39:03;0.30;32.20
19805;DHT22;10062;51.052;13.756;2023-02-26T07:41:37;0.30;22.60
19805;DHT22;10062;51.052;13.756;2023-02-26T07:44:11;0.30;19.50
19805;DHT22;10062;51.052;13.756;2023-02-26T07:46:43;0.40;24.30
19805;DHT22;10062;51.052;13.756;2023-02-26T07:49:15;0.30;21.50
19805;DHT22;10062;51.052;13.756;2023-02-26T07:51:47;0.30;27.00
19805;DHT22;10062;51.052;13.756;2023-02-26T07:54:19;0.30;26.70
19805;DHT22;10062;51.052;13.756;2023-02-26T07:56:52;0.30;28.80
19805;DHT22;10062;51.052;13.756;2023-02-26T07:59:23;0.30;30.20
19805;DHT22;10062;51.052;13.756;2023-02-26T08:01:55;0.40;41.10
19805;DHT22;10062;51.052;13.756;2023-02-26T08:04:27;0.40;29.30
19805;DHT22;10062;51.052;13.756;2023-02-26T08:06:59;0.40;22.50
19805;DHT22;10062;51.052;13.756;2023-02-26T08:09:31;0.40;19.30
19805;DHT22;10062;51.052;13.756;2023-02-26T08:12:06;0.40;15.70
19805;DHT22;10062;51.052;13.756;2023-02-26T08:14:37;0.50;17.00
19805;DHT22;10062;51.052;13.756;2023-02-26T08:17:11;0.50;15.70
19805;DHT22;10062;51.052;13.756;2023-02-26T08:19:42;0.50;11.90
19805;DHT22;10062;51.052;13.756;2023-02-26T08:22:14;0.40;16.80
19805;DHT22;10062;51.052;13.756;2023-02-26T08:24:46;0.40;15.40
19805;DHT22;10062;51.052;13.756;2023-02-26T08:27:19;0.30;17.50
19805;DHT22;10062;51.052;13.756;2023-02-26T08:29:50;0.30;24.00
19805;DHT22;10062;51.052;13.756;2023-02-26T08:32:22;0.40;23.00
19805;DHT22;10062;51.052;13.756;2023-02-26T08:34:56;0.40;21.00
19805;DHT22;10062;51.052;13.756;2023-02-26T08:37:27;0.50;20.80
19805;DHT22;10062;51.052;13.756;2023-02-26T08:39:59;0.50;16.40
19805;DHT22;10062;51.052;13.756;2023-02-26T08:42:32;0.50;14.40
19805;DHT22;10062;51.052;13.756;2023-02-26T08:45:05;0.60;14.60
19805;DHT22;10062;51.052;13.756;2023-02-26T08:47:38;0.60;1.00
19805;DHT22;10062;51.052;13.756;2023-02-26T08:50:11;0.70;1.00
19805;DHT22;10062;51.052;13.756;2023-02-26T08:52:43;0.80;1.00
19805;DHT22;10062;51.052;13.756;2023-02-26T08:55:14;0.80;1.00
19805;DHT22;10062;51.052;13.756;2023-02-26T08:57:48;0.90;1.00
19805;DHT22;10062;51.052;13.756;2023-02-26T09:00:20;0.90;1.00
19805;DHT22;10062;51.052;13.756;2023-02-26T09:02:52;0.90;1.00
19805;DHT22;10062;51.052;13.756;2023-02-26T09:05:24;0.90;1.00
19805;DHT22;10062;51.052;13.756;2023-02-26T09:07:55;1.00;1.00
19805;DHT22;10062;51.052;13.756;2023-02-26T09:10:27;1.00;1.00
19805;DHT22;10062;51.052;13.756;2023-02-26T09:13:00;1.10;1.00
19805;DHT22;10062;51.052;13.756;2023-02-26T09:15:31;1.00;1.00
19805;DHT22;10062;51.052;13.756;2023-02-26T09:18:03;1.00;1.00
19805;DHT22;10062;51.052;13.756;2023-02-26T09:20:36;1.10;1.00
19805;DHT22;10062;51.052;13.756;2023-02-26T09:23:08;1.10;1.00
19805;DHT22;10062;51.052;13.756;2023-02-26T09:25:40;1.20;1.00
19805;DHT22;10062;51.052;13.756;2023-02-26T09:28:13;1.20;1.00
19805;DHT22;10062;51.052;13.756;2023-02-26T09:30:45;1.30;1.00
19805;DHT22;10062;51.052;13.756;2023-02-26T09:33:17;1.30;1.00
19805;DHT22;10062;51.052;13.756;2023-02-26T09:35:49;1.30;1.00
19805;DHT22;10062;51.052;13.756;2023-02-26T09:38:21;1.30;1.00
19805;DHT22;10062;51.052;13.756;2023-02-26T09:40:57;1.30;1.00
19805;DHT22;10062;51.052;13.756;2023-02-26T09:43:51;1.40;1.00
19805;DHT22;10062;51.052;13.756;2023-02-26T09:46:31;1.50;1.00
19805;DHT22;10062;51.052;13.756;2023-02-26T09:49:19;1.80;1.00
19805;DHT22;10062;51.052;13.756;2023-02-26T09:51:56;1.80;1.00
19805;DHT22;10062;51.052;13.756;2023-02-26T09:54:40;1.90;1.00
19805;DHT22;10062;51.052;13.756;2023-02-26T09:57:21;2.00;1.00
19805;DHT22;10062;51.052;13.756;2023-02-26T09:59:58;2.20;1.00
19805;DHT22;10062;51.052;13.756;2023-02-26T10:02:37;2.40;1.00
19805;DHT22;10062;51.052;13.756;2023-02-26T10:05:17;2.70;1.00
19805;DHT22;10062;51.052;13.756;2023-02-26T10:07:55;2.80;1.00
19805;DHT22;10062;51.052;13.756;2023-02-26T10:10:34;3.10;1.00
19805;DHT22;10062;51.052;13.756;2023-02-26T10:13:16;3.10;24.60
19805;DHT22;10062;51.052;13.756;2023-02-26T10:15:52;2.70;99.90
19805;DHT22;10062;51.052;13.756;2023-02-26T10:18:32;2.70;1.00
19805;DHT22;10062;51.052;13.756;2023-02-26T10:21:09;2.60;1.00
19805;DHT22;10062;51.052;13.756;2023-02-26T10:23:44;2.30;1.00
19805;DHT22;10062;51.052;13.756;2023-02-26T10:26:22;2.20;1.00
19805;DHT22;10062;51.052;13.756;2023-02-26T10:29:00;2.30;1.00
19805;DHT22;10062;51.052;13.756;2023-02-26T10:31:37;2.30;1.00
19805;DHT22;10062;51.052;13.756;2023-02-26T10:34:18;2.10;1.00
19805;DHT22;10062;51.052;13.756;2023-02-26T10:36:56;2.10;1.00
19805;DHT22;10062;51.052;13.756;2023-02-26T10:39:31;2.10;1.00
19805;DHT22;10062;51.052;13.756;2023-02-26T10:42:09;2.20;1.00
19805;DHT22;10062;51.052;13.756;2023-02-26T10:44:48;2.40;1.00
19805;DHT22;10062;51.052;13.756;2023-02-26T10:47:30;2.50;1.00
19805;DHT22;10062;51.052;13.756;2023-02-26T10:50:05;2.50;1.00
19805;DHT22;10062;51.052;13.756;2023-02-26T10:52:37;2.50;99.90
19805;DHT22;10062;51.052;13.756;2023-02-26T10:55:26;2.80;1.00
19805;DHT22;10062;51.052;13.756;2023-02-26T10:58:04;3.00;99.90
19805;DHT22;10062;51.052;13.756;2023-02-26T11:00:36;3.10;1.00
19805;DHT22;10062;51.052;13.756;2023-02-26T11:03:19;3.00;1.00
19805;DHT22;10062;51.052;13.756;2023-02-26T11:05:51;2.90;99.90
19805;DHT22;10062;51.052;13.756;2023-02-26T11:08:25;3.00;1.00
19805;DHT22;10062;51.052;13.756;2023-02-26T11:10:59;3.50;1.00
19805;DHT22;10062;51.052;13.756;2023-02-26T11:13:33;5.10;1.00
19805;DHT22;10062;51.052;13.756;2023-02-26T11:16:10;7.00;1.00
19805;DHT22;10062;51.052;13.756;2023-02-26T11:18:48;9.30;99.90
19805;DHT22;10062;51.052;13.756;2023-02-26T11:21:22;10.00;1.00
19805;DHT22;10062;51.052;13.756;2023-02-26T11:23:58;9.60;1.00
19805;DHT22;10062;51.052;13.756;2023-02-26T11:26:35;8.80;1.00
19805;DHT22;10062;51.052;13.756;2023-02-26T11:29:13;6.80;99.90
19805;DHT22;10062;51.052;13.756;2023-02-26T11:31:47;6.40;1.00
19805;DHT22;10062;51.052;13.756;2023-02-26T11:34:23;6.20;1.00
19805;DHT22;10062;51.052;13.756;2023-02-26T11:36:57;5.40;1.00
19805;DHT22;10062;51.052;13.756;2023-02-26T11:39:33;5.50;1.00
19805;DHT22;10062;51.052;13.756;2023-02-26T11:42:08;4.80;99.90
19805;DHT22;10062;51.052;13.756;2023-02-26T11:44:43;4.20;99.90
19805;DHT22;10062;51.052;13.756;2023-02-26T11:47:18;4.10;1.00
19805;DHT22;10062;51.052;13.756;2023-02-26T11:49:54;4.50;1.00
19805;DHT22;10062;51.052;13.756;2023-02-26T11:52:28;4.80;1.00
19805;DHT22;10062;51.052;13.756;2023-02-26T11:55:03;4.70;1.00
19805;DHT22;10062;51.052;13.756;2023-02-26T11:57:41;4.30;1.00
19805;DHT22;10062;51.052;13.756;2023-02-26T12:00:18;4.10;98.00
19805;DHT22;10062;51.052;13.756;2023-02-26T12:02:50;3.70;1.00
19805;DHT22;10062;51.052;13.756;2023-02-26T12:05:28;3.40;99.90
19805;DHT22;10062;51.052;13.756;2023-02-26T12:08:00;3.10;1.00
19805;DHT22;10062;51.052;13.756;2023-02-26T12:10:37;3.00;1.00
19805;DHT22;10062;51.052;13.756;2023-02-26T12:13:15;3.00;99.90
19805;DHT22;10062;51.052;13.756;2023-02-26T12:15:53;3.00;1.00
19805;DHT22;10062;51.052;13.756;2023-02-26T12:18:37;3.00;99.90
19805;DHT22;10062;51.052;13.756;2023-02-26T12:24:30;3.30;1.00
19805;DHT22;10062;51.052;13.756;2023-02-26T12:27:13;3.60;1.00
19805;DHT22;10062;51.052;13.756;2023-02-26T12:30:05;3.90;37.50
19805;DHT22;10062;51.052;13.756;2023-02-26T12:32:50;3.90;99.90
19805;DHT22;10062;51.052;13.756;2023-02-26T12:35:36;3.80;99.90
19805;DHT22;10062;51.052;13.756;2023-02-26T12:38:19;3.80;1.00
19805;DHT22;10062;51.052;13.756;2023-02-26T12:41:21;3.60;99.90
19805;DHT22;10062;51.052;13.756;2023-02-26T12:43:55;3.40;99.90
19805;DHT22;10062;51.052;13.756;2023-02-26T12:46:53;3.20;1.00
19805;DHT22;10062;51.052;13.756;2023-02-26T12:49:50;3.40;1.00
19805;DHT22;10062;51.052;13.756;2023-02-26T12:52:45;3.40;1.00
19805;DHT22;10062;51.052;13.756;2023-02-26T12:55:31;3.10;1.00
19805;DHT22;10062;51.052;13.756;2023-02-26T12:58:19;2.90;1.00
19805;DHT22;10062;51.052;13.756;2023-02-26T13:01:10;2.80;99.90
19805;DHT22;10062;51.052;13.756;2023-02-26T13:04:00;2.70;99.90
19805;DHT22;10062;51.052;13.756;2023-02-26T13:07:02;2.60;1.00
19805;DHT22;10062;51.052;13.756;2023-02-26T13:09:48;2.60;1.00
19805;DHT22;10062;51.052;13.756;2023-02-26T13:12:33;2.60;99.90
19805;DHT22;10062;51.052;13.756;2023-02-26T13:15:27;2.60;99.90
19805;DHT22;10062;51.052;13.756;2023-02-26T13:18:07;2.60;99.90
19805;DHT22;10062;51.052;13.756;2023-02-26T13:20:46;2.60;99.90
19805;DHT22;10062;51.052;13.756;2023-02-26T13:23:23;2.70;1.00
19805;DHT22;10062;51.052;13.756;2023-02-26T13:25:58;2.70;1.00
19805;DHT22;10062;51.052;13.756;2023-02-26T13:28:37;2.70;92.10
19805;DHT22;10062;51.052;13.756;2023-02-26T13:31:14;2.90;1.00
19805;DHT22;10062;51.052;13.756;2023-02-26T13:33:48;2.90;99.90
19805;DHT22;10062;51.052;13.756;2023-02-26T13:36:21;2.90;1.00
19805;DHT22;10062;51.052;13.756;2023-02-26T13:39:05;3.00;91.10
19805;DHT22;10062;51.052;13.756;2023-02-26T13:41:46;2.80;99.90
19805;DHT22;10062;51.052;13.756;2023-02-26T13:44:29;2.60;1.00
19805;DHT22;10062;51.052;13.756;2023-02-26T13:47:14;2.40;99.90
19805;DHT22;10062;51.052;13.756;2023-02-26T13:49:59;2.30;1.00
19805;DHT22;10062;51.052;13.756;2023-02-26T13:52:34;2.40;1.00
19805;DHT22;10062;51.052;13.756;2023-02-26T13:55:36;2.80;1.00
19805;DHT22;10062;51.052;13.756;2023-02-26T13:58:28;3.20;1.00
19805;DHT22;10062;51.052;13.756;2023-02-26T14:01:08;3.50;99.90
19805;DHT22;10062;51.052;13.756;2023-02-26T14:03:44;3.90;99.90
19805;DHT22;10062;51.052;13.756;2023-02-26T14:06:36;4.60;99.90
19805;DHT22;10062;51.052;13.756;2023-02-26T14:09:34;5.00;99.90
19805;DHT22;10062;51.052;13.756;2023-02-26T14:12:23;4.70;1.00
19805;DHT22;10062;51.052;13.756;2023-02-26T14:15:19;4.20;1.00
19805;DHT22;10062;51.052;13.756;2023-02-26T14:18:04;4.00;1.00
19805;DHT22;10062;51.052;13.756;2023-02-26T14:20:36;3.70;99.90
19805;DHT22;10062;51.052;13.756;2023-02-26T14:23:29;3.60;1.00
19805;DHT22;10062;51.052;13.756;2023-02-26T14:26:05;3.40;1.00
19805;DHT22;10062;51.052;13.756;2023-02-26T14:28:54;3.40;1.00
19805;DHT22;10062;51.052;13.756;2023-02-26T14:31:49;3.20;1.00
19805;DHT22;10062;51.052;13.756;2023-02-26T14:34:28;3.20;1.00
19805;DHT22;10062;51.052;13.756;2023-02-26T14:37:02;3.20;1.00
19805;DHT22;10062;51.052;13.756;2023-02-26T14:39:40;3.20;1.00
19805;DHT22;10062;51.052;13.756;2023-02-26T14:42:17;3.20;1.00
19805;DHT22;10062;51.052;13.756;2023-02-26T14:44:53;3.30;1.00
19805;DHT22;10062;51.052;13.756;2023-02-26T14:47:27;3.60;90.50
19805;DHT22;10062;51.052;13.756;2023-02-26T14:50:01;3.80;1.00
19805;DHT22;10062;51.052;13.756;2023-02-26T14:52:59;4.00;1.00
19805;DHT22;10062;51.052;13.756;2023-02-26T14:55:43;4.10;99.90
19805;DHT22;10062;51.052;13.756;2023-02-26T14:58:29;3.90;99.90
19805;DHT22;10062;51.052;13.756;2023-02-26T15:01:10;4.00;99.90
19805;DHT22;10062;51.052;13.756;2023-02-26T15:04:00;4.10;1.00
19805;DHT22;10062;51.052;13.756;2023-02-26T15:06:50;4.00;99.90
19805;DHT22;10062;51.052;13.756;2023-02-26T15:09:32;3.70;99.90
19805;DHT22;10062;51.052;13.756;2023-02-26T15:12:25;3.80;99.90
19805;DHT22;10062;51.052;13.756;2023-02-26T15:15:09;3.80;99.90
19805;DHT22;10062;51.052;13.756;2023-02-26T15:17:53;3.40;99.90
19805;DHT22;10062;51.052;13.756;2023-02-26T15:20:36;2.90;99.90
19805;DHT22;10062;51.052;13.756;2023-02-26T15:23:24;2.80;1.00
19805;DHT22;10062;51.052;13.756;2023-02-26T15:25:59;2.30;1.00
19805;DHT22;10062;51.052;13.756;2023-02-26T15:28:33;2.10;1.00
19805;DHT22;10062;51.052;13.756;2023-02-26T15:31:09;1.90;1.00
19805;DHT22;10062;51.052;13.756;2023-02-26T15:33:41;1.90;1.00
19805;DHT22;10062;51.052;13.756;2023-02-26T15:36:16;1.90;1.00
19805;DHT22;10062;51.052;13.756;2023-02-26T15:38:55;2.00;1.00
19805;DHT22;10062;51.052;13.756;2023-02-26T15:41:29;2.00;1.00
19805;DHT22;10062;51.052;13.756;2023-02-26T15:44:04;2.00;1.00
19805;DHT22;10062;51.052;13.756;2023-02-26T15:46:39;2.00;1.00
19805;DHT22;10062;51.052;13.756;2023-02-26T15:49:14;2.00;1.00
19805;DHT22;10062;51.052;13.756;2023-02-26T15:51:49;2.10;1.00
19805;DHT22;10062;51.052;13.756;2023-02-26T15:54:27;2.30;1.00
19805;DHT22;10062;51.052;13.756;2023-02-26T15:57:01;2.00;1.00
19805;DHT22;10062;51.052;13.756;2023-02-26T15:59:35;2.00;1.00
19805;DHT22;10062;51.052;13.756;2023-02-26T16:02:12;1.90;1.00
19805;DHT22;10062;51.052;13.756;2023-02-26T16:04:44;1.90;1.00
19805;DHT22;10062;51.052;13.756;2023-02-26T16:07:16;1.90;1.00
19805;DHT22;10062;51.052;13.756;2023-02-26T16:09:50;1.90;1.00
19805;DHT22;10062;51.052;13.756;2023-02-26T16:12:25;1.90;1.00
19805;DHT22;10062;51.052;13.756;2023-02-26T16:15:03;1.90;1.00
19805;DHT22;10062;51.052;13.756;2023-02-26T16:17:41;1.90;1.00
19805;DHT22;10062;51.052;13.756;2023-02-26T16:20:15;1.90;1.00
19805;DHT22;10062;51.052;13.756;2023-02-26T16:22:49;1.90;1.00
19805;DHT22;10062;51.052;13.756;2023-02-26T16:25:27;1.90;1.00
19805;DHT22;10062;51.052;13.756;2023-02-26T16:28:01;1.90;1.00
19805;DHT22;10062;51.052;13.756;2023-02-26T16:30:36;1.80;1.00
19805;DHT22;10062;51.052;13.756;2023-02-26T16:33:11;1.80;1.00
19805;DHT22;10062;51.052;13.756;2023-02-26T16:35:45;1.80;1.00
19805;DHT22;10062;51.052;13.756;2023-02-26T16:38:20;1.80;1.00